Time;durP1;ratioP1;P1;durP2;ratioP2;P2;SDS_P1;SDS_P2;PMS_P1;PMS_P2;Temp;Humidity;BMP_temperature;BMP_pressure;BME280_temperature;BME280_humidity;BME280_pressure;Samples;Min_cycle;Max_cycle;Signal;HPM_P1;HPM_P2
2023/03/16 00:00:22;;;;;;;19.17;5.20;;;;;;;;;;5037006;28;20497;-71
2023/03/16 00:02:49;;;;;;;13.50;4.47;;;;;;;;;;5031444;28;20757;-71
2023/03/16 00:05:16;;;;;;;17.38;4.65;;;;;;;;;;5038505;28;20046;-70
2023/03/16 00:07:45;;;;;;;19.15;4.80;;;;;;;;;;5030347;28;20044;-71
2023/03/16 00:10:13;;;;;;;16.02;4.25;;;;;;;;;;5037690;28;20072;-70
2023/03/16 00:12:42;;;;;;;19.70;5.28;;;;;;;;;;5025844;28;20041;-69
2023/03/16 00:15:12;;;;;;;15.65;4.70;;;;;;;;;;5017306;28;20094;-69
2023/03/16 00:17:40;;;;;;;16.63;4.82;;;;;;;;;;5011890;28;20267;-69
2023/03/16 00:20:08;;;;;;;13.60;3.45;;;;;;;;;;5015771;28;20037;-69
2023/03/16 00:22:36;;;;;;;14.02;3.90;;;;;;;;;;5015636;28;20025;-70
2023/03/16 00:25:05;;;;;;;13.98;3.80;;;;;;;;;;5014310;28;20037;-70
2023/03/16 00:27:32;;;;;;;13.88;3.88;;;;;;;;;;5017736;28;20148;-70
2023/03/16 00:30:02;;;;;;;16.67;4.35;;;;;;;;;;5015109;28;20029;-70
2023/03/16 00:32:33;;;;;;;13.20;3.53;;;;;;;;;;5016456;28;20060;-70
2023/03/16 00:35:02;;;;;;;15.88;3.60;;;;;;;;;;5012669;28;20052;-70
2023/03/16 00:37:29;;;;;;;14.82;4.03;;;;;;;;;;5022155;28;20033;-70
2023/03/16 00:39:58;;;;;;;16.10;3.97;;;;;;;;;;5018433;28;20194;-72
2023/03/16 00:42:29;;;;;;;14.80;3.95;;;;;;;;;;5018001;28;20353;-70
2023/03/16 00:44:57;;;;;;;15.20;4.00;;;;;;;;;;5013938;28;24808;-70
2023/03/16 00:47:34;;;;;;;13.27;3.35;;;;;;;;;;5017036;28;20441;-70
2023/03/16 00:50:03;;;;;;;11.10;2.95;;;;;;;;;;5014052;28;20141;-72
2023/03/16 00:52:31;;;;;;;11.45;3.10;;;;;;;;;;5016231;28;20029;-70
2023/03/16 00:54:58;;;;;;;16.45;3.63;;;;;;;;;;5011446;28;20032;-70
2023/03/16 00:57:27;;;;;;;15.02;3.30;;;;;;;;;;5019190;28;20065;-71
2023/03/16 00:59:54;;;;;;;14.73;3.20;;;;;;;;;;5014454;28;20036;-71
2023/03/16 01:02:24;;;;;;;12.25;3.17;;;;;;;;;;5016854;28;20029;-71
2023/03/16 01:04:53;;;;;;;14.65;3.28;;;;;;;;;;5013936;28;20048;-70
2023/03/16 01:07:21;;;;;;;12.73;3.03;;;;;;;;;;5013548;28;20033;-70
2023/03/16 01:09:48;;;;;;;16.60;3.47;;;;;;;;;;5011765;28;20178;-70
2023/03/16 01:12:17;;;;;;;14.93;3.70;;;;;;;;;;5027219;28;20159;-70
2023/03/16 01:14:48;;;;;;;12.77;2.92;;;;;;;;;;5031274;28;20570;-69
2023/03/16 01:17:20;;;;;;;14.18;3.13;;;;;;;;;;5031533;28;20032;-69
2023/03/16 01:19:49;;;;;;;11.90;2.70;;;;;;;;;;5031776;28;20516;-70
2023/03/16 01:22:16;;;;;;;15.00;3.30;;;;;;;;;;5032007;28;20021;-70
2023/03/16 01:24:44;;;;;;;12.98;2.80;;;;;;;;;;5029968;28;20523;-70
2023/03/16 01:27:12;;;;;;;11.18;3.08;;;;;;;;;;5033286;28;20060;-70
2023/03/16 01:29:42;;;;;;;12.60;2.97;;;;;;;;;;5030904;28;20572;-70
2023/03/16 01:32:08;;;;;;;15.02;3.05;;;;;;;;;;5036334;28;20343;-71
2023/03/16 01:34:37;;;;;;;11.82;2.92;;;;;;;;;;5035552;28;20933;-70
2023/03/16 01:37:03;;;;;;;11.32;2.88;;;;;;;;;;5033561;28;20035;-70
2023/03/16 01:39:31;;;;;;;13.48;3.22;;;;;;;;;;5031071;28;20041;-70
2023/03/16 01:41:58;;;;;;;14.20;3.00;;;;;;;;;;5029283;28;20086;-70
2023/03/16 01:44:29;;;;;;;12.13;3.22;;;;;;;;;;5047365;28;20047;-70
2023/03/16 01:46:57;;;;;;;14.02;3.60;;;;;;;;;;5032658;28;20263;-71
2023/03/16 01:49:29;;;;;;;17.40;3.42;;;;;;;;;;5030708;28;20056;-71
2023/03/16 01:52:01;;;;;;;13.02;2.90;;;;;;;;;;5028203;28;20028;-70
2023/03/16 01:54:38;;;;;;;13.93;3.15;;;;;;;;;;5032974;28;20454;-71
2023/03/16 01:57:10;;;;;;;9.77;2.55;;;;;;;;;;5033078;28;20025;-70
2023/03/16 01:59:42;;;;;;;12.30;2.85;;;;;;;;;;5031550;28;20489;-70
2023/03/16 02:02:11;;;;;;;11.65;2.85;;;;;;;;;;5032630;28;20037;-70
2023/03/16 02:04:57;;;;;;;10.73;2.70;;;;;;;;;;5033615;28;20059;-70
2023/03/16 02:07:28;;;;;;;11.88;2.58;;;;;;;;;;5034237;28;20067;-70
2023/03/16 02:09:57;;;;;;;14.23;3.45;;;;;;;;;;5030329;28;20649;-70
2023/03/16 02:12:25;;;;;;;12.48;3.30;;;;;;;;;;5035294;28;20835;-71
2023/03/16 02:14:51;;;;;;;11.27;3.10;;;;;;;;;;5031226;28;20029;-70
2023/03/16 02:17:19;;;;;;;;;;;;;;;;;;5033475;28;20028;-71
2023/03/16 02:20:10;;;;;;;11.32;2.65;;;;;;;;;;5032781;28;20267;-72
2023/03/16 02:22:41;;;;;;;14.57;3.40;;;;;;;;;;5029058;28;20541;-71
2023/03/16 02:25:10;;;;;;;18.02;3.30;;;;;;;;;;5032816;28;20475;-72
2023/03/16 02:27:56;;;;;;;11.05;2.67;;;;;;;;;;5027260;28;20691;-69
2023/03/16 02:30:25;;;;;;;11.93;2.70;;;;;;;;;;5037041;28;20017;-70
2023/03/16 02:32:53;;;;;;;12.63;2.60;;;;;;;;;;5029907;28;20541;-70
2023/03/16 02:35:21;;;;;;;13.98;2.70;;;;;;;;;;5034275;28;20159;-70
2023/03/16 02:37:51;;;;;;;13.32;2.78;;;;;;;;;;5035288;28;20485;-70
2023/03/16 02:40:28;;;;;;;11.27;2.72;;;;;;;;;;5039894;28;20047;-70
2023/03/16 02:42:58;;;;;;;11.65;2.53;;;;;;;;;;5034186;28;20546;-70
2023/03/16 02:45:32;;;;;;;13.32;2.65;;;;;;;;;;5034556;28;20035;-70
2023/03/16 02:48:04;;;;;;;11.93;2.60;;;;;;;;;;5036672;28;20052;-70
2023/03/16 02:50:32;;;;;;;13.13;2.25;;;;;;;;;;5036917;28;20335;-70
2023/03/16 02:52:58;;;;;;;12.23;2.95;;;;;;;;;;5035275;28;20052;-69
2023/03/16 02:55:25;;;;;;;;;;;;;;;;;;5036887;28;20052;-70
2023/03/16 02:57:53;;;;;;;12.93;3.00;;;;;;;;;;5031405;28;19909;-70
2023/03/16 03:00:21;;;;;;;10.95;2.80;;;;;;;;;;5034710;28;20033;-70
2023/03/16 03:02:51;;;;;;;10.85;2.53;;;;;;;;;;5035128;28;20020;-71
2023/03/16 03:05:20;;;;;;;10.23;2.30;;;;;;;;;;5038665;28;20640;-70
2023/03/16 03:07:47;;;;;;;14.07;2.35;;;;;;;;;;5033263;28;20033;-70
2023/03/16 03:10:14;;;;;;;12.27;2.60;;;;;;;;;;5036642;28;20031;-70
2023/03/16 03:12:42;;;;;;;11.30;2.63;;;;;;;;;;5031988;28;20345;-69
2023/03/16 03:15:09;;;;;;;12.00;2.65;;;;;;;;;;5034160;28;20219;-69
2023/03/16 03:17:37;;;;;;;11.57;2.17;;;;;;;;;;5039894;28;20573;-70
2023/03/16 03:20:12;;;;;;;11.90;2.90;;;;;;;;;;5035206;28;20425;-70
2023/03/16 03:22:39;;;;;;;13.05;3.10;;;;;;;;;;5030396;28;20375;-70
2023/03/16 03:25:07;;;;;;;9.85;2.50;;;;;;;;;;5036012;28;20488;-70
2023/03/16 03:27:36;;;;;;;13.65;2.92;;;;;;;;;;5021091;28;20873;-70
2023/03/16 03:30:05;;;;;;;13.80;2.40;;;;;;;;;;5028677;28;20046;-70
2023/03/16 03:32:33;;;;;;;14.18;2.75;;;;;;;;;;5030706;28;20091;-71
2023/03/16 03:34:59;;;;;;;10.90;2.13;;;;;;;;;;5024301;28;20367;-70
2023/03/16 03:37:27;;;;;;;9.98;2.25;;;;;;;;;;5026532;28;20036;-70
2023/03/16 03:39:57;;;;;;;11.55;2.45;;;;;;;;;;5027463;28;20036;-70
2023/03/16 03:42:26;;;;;;;12.82;2.30;;;;;;;;;;5027129;28;20407;-70
2023/03/16 03:44:53;;;;;;;10.63;2.53;;;;;;;;;;5026453;28;20033;-70
2023/03/16 03:47:21;;;;;;;11.02;2.58;;;;;;;;;;5021823;28;20025;-70
2023/03/16 03:49:48;;;;;;;13.20;2.80;;;;;;;;;;5024353;28;20414;-70
2023/03/16 03:52:16;;;;;;;12.32;2.75;;;;;;;;;;5028083;28;20537;-69
2023/03/16 03:54:43;;;;;;;13.93;2.90;;;;;;;;;;5029714;28;20024;-69
2023/03/16 03:57:11;;;;;;;10.38;2.40;;;;;;;;;;5029810;28;20033;-69
2023/03/16 03:59:42;;;;;;;12.65;2.60;;;;;;;;;;5022793;28;20032;-69
2023/03/16 04:02:10;;;;;;;9.38;2.05;;;;;;;;;;5025097;28;20409;-70
2023/03/16 04:04:46;;;;;;;10.77;2.45;;;;;;;;;;5023541;28;20169;-69
2023/03/16 04:07:13;;;;;;;11.55;2.42;;;;;;;;;;5024305;28;20033;-70
2023/03/16 04:09:40;;;;;;;11.65;2.38;;;;;;;;;;5024927;28;20034;-70
2023/03/16 07:32:11;;;;;;;16.30;4.25;;;;;;;;;;5026836;28;20040;-70
2023/03/16 07:34:38;;;;;;;19.35;5.75;;;;;;;;;;5019050;28;20136;-70
2023/03/16 07:37:07;;;;;;;14.13;5.50;;;;;;;;;;5019340;28;20835;-73
2023/03/16 07:39:34;;;;;;;12.55;4.65;;;;;;;;;;5035801;28;20109;-70
2023/03/16 07:42:01;;;;;;;13.13;4.25;;;;;;;;;;5027020;28;20045;-71
2023/03/16 07:44:30;;;;;;;15.40;4.43;;;;;;;;;;5027734;28;20160;-72
2023/03/16 07:46:57;;;;;;;14.23;4.97;;;;;;;;;;5023006;28;20055;-71
2023/03/16 07:49:23;;;;;;;15.90;5.30;;;;;;;;;;5014946;28;20032;-72
2023/03/16 07:51:50;;;;;;;17.70;5.93;;;;;;;;;;5031160;28;20430;-70
2023/03/16 07:54:17;;;;;;;16.30;5.40;;;;;;;;;;5016564;28;20144;-71
2023/03/16 07:56:44;;;;;;;23.13;6.13;;;;;;;;;;5000673;28;20224;-70
2023/03/16 07:59:11;;;;;;;18.48;5.07;;;;;;;;;;5036046;28;20393;-70
2023/03/16 08:01:38;;;;;;;20.55;5.32;;;;;;;;;;5016122;28;20075;-69
2023/03/16 08:04:06;;;;;;;20.13;5.20;;;;;;;;;;5034880;28;20037;-69
2023/03/16 08:06:33;;;;;;;21.98;5.28;;;;;;;;;;5019339;28;20649;-71
2023/03/16 08:09:01;;;;;;;17.30;5.03;;;;;;;;;;5030093;28;20044;-70
2023/03/16 08:11:28;;;;;;;22.60;5.95;;;;;;;;;;5031213;28;20484;-69
2023/03/16 08:13:55;;;;;;;19.65;5.95;;;;;;;;;;5033608;28;20413;-69
2023/03/16 08:16:27;;;;;;;28.15;7.50;;;;;;;;;;5035834;28;20027;-69
2023/03/16 08:18:56;;;;;;;22.02;7.78;;;;;;;;;;5013285;28;20089;-70
2023/03/16 08:21:23;;;;;;;18.98;6.45;;;;;;;;;;5019658;28;20036;-71
2023/03/16 08:23:51;;;;;;;24.05;6.85;;;;;;;;;;5019737;28;20032;-69
2023/03/16 08:26:22;;;;;;;16.45;5.35;;;;;;;;;;5032830;28;20357;-72
2023/03/16 08:28:50;;;;;;;13.65;4.28;;;;;;;;;;5033532;28;20368;-70
2023/03/16 08:31:18;;;;;;;16.40;4.55;;;;;;;;;;5037144;28;20028;-69
2023/03/16 08:33:47;;;;;;;12.20;3.53;;;;;;;;;;5028030;28;20076;-69
2023/03/16 08:36:16;;;;;;;13.32;3.95;;;;;;;;;;5032675;28;20427;-69
2023/03/16 08:38:45;;;;;;;15.88;3.58;;;;;;;;;;5029475;28;20365;-70
2023/03/16 08:41:15;;;;;;;20.88;4.13;;;;;;;;;;5029847;28;20444;-70
2023/03/16 08:43:43;;;;;;;14.43;3.30;;;;;;;;;;5030217;28;20792;-70
2023/03/16 08:46:12;;;;;;;13.50;2.75;;;;;;;;;;5032282;28;20032;-71
2023/03/16 08:48:40;;;;;;;10.73;2.47;;;;;;;;;;5032217;28;20115;-71
2023/03/16 08:51:09;;;;;;;11.15;2.33;;;;;;;;;;5034670;28;20024;-70
2023/03/16 08:53:36;;;;;;;13.23;2.92;;;;;;;;;;5033165;28;20031;-70
2023/03/16 08:56:06;;;;;;;12.70;2.45;;;;;;;;;;5032545;28;20020;-71
2023/03/16 08:58:34;;;;;;;16.17;3.28;;;;;;;;;;5031032;28;20044;-70
2023/03/16 09:01:04;;;;;;;11.57;2.40;;;;;;;;;;5031666;28;20360;-70
2023/03/16 09:03:34;;;;;;;11.55;2.38;;;;;;;;;;5032631;28;20524;-70
2023/03/16 09:06:03;;;;;;;10.93;2.70;;;;;;;;;;5031622;28;20106;-70
2023/03/16 09:08:30;;;;;;;12.65;2.90;;;;;;;;;;5013912;28;20342;-70
2023/03/16 09:11:06;;;;;;;10.27;2.80;;;;;;;;;;5026815;28;20417;-70
2023/03/16 09:13:34;;;;;;;11.23;2.47;;;;;;;;;;5033001;28;20428;-70
2023/03/16 09:16:01;;;;;;;10.23;2.60;;;;;;;;;;5026999;28;21007;-71
2023/03/16 09:18:30;;;;;;;10.75;2.92;;;;;;;;;;5033327;28;20754;-71
2023/03/16 09:21:01;;;;;;;9.85;3.38;;;;;;;;;;5027687;28;20549;-71
2023/03/16 09:23:32;;;;;;;16.15;5.00;;;;;;;;;;5018125;28;20046;-70
2023/03/16 09:25:59;;;;;;;12.10;4.38;;;;;;;;;;5024995;28;20694;-70
2023/03/16 09:28:32;;;;;;;16.20;5.65;;;;;;;;;;5015747;28;20382;-71
2023/03/16 09:31:00;;;;;;;15.70;5.60;;;;;;;;;;5031595;28;20036;-70
2023/03/16 09:33:28;;;;;;;18.42;6.88;;;;;;;;;;5018927;28;20057;-70
2023/03/16 09:35:56;;;;;;;14.57;6.15;;;;;;;;;;5027913;28;20028;-69
2023/03/16 09:38:25;;;;;;;16.30;7.40;;;;;;;;;;5034353;28;20511;-70
2023/03/16 09:40:57;;;;;;;14.77;5.78;;;;;;;;;;5015811;28;20634;-70
2023/03/16 09:43:36;;;;;;;17.88;7.47;;;;;;;;;;5034547;28;20024;-73
2023/03/16 09:46:24;;;;;;;16.05;6.13;;;;;;;;;;5017892;28;20397;-70
2023/03/16 09:48:53;;;;;;;14.45;6.03;;;;;;;;;;5030025;28;20139;-70
2023/03/16 09:51:42;;;;;;;14.25;5.78;;;;;;;;;;5019117;28;20663;-69
2023/03/16 09:54:27;;;;;;;15.55;5.60;;;;;;;;;;5015332;28;20545;-69
2023/03/16 09:56:54;;;;;;;10.85;4.90;;;;;;;;;;5030856;28;20061;-72
2023/03/16 09:59:21;;;;;;;12.35;4.75;;;;;;;;;;5019640;28;20551;-70
2023/03/16 10:01:51;;;;;;;14.82;4.35;;;;;;;;;;5030907;28;20841;-69
2023/03/16 10:04:39;;;;;;;11.80;2.55;;;;;;;;;;5029742;28;20070;-69
2023/03/16 10:07:06;;;;;;;18.65;4.55;;;;;;;;;;5029081;28;20293;-69
2023/03/16 10:09:37;;;;;;;14.75;3.28;;;;;;;;;;5031395;28;20143;-69
2023/03/16 10:12:09;;;;;;;9.25;2.83;;;;;;;;;;5031879;28;20538;-69
2023/03/16 10:14:42;;;;;;;14.70;3.20;;;;;;;;;;5031807;28;20029;-69
2023/03/16 10:17:38;;;;;;;8.90;2.38;;;;;;;;;;5035608;28;20125;-69
2023/03/16 10:20:11;;;;;;;8.85;2.10;;;;;;;;;;4991563;28;20119;-70
2023/03/16 10:22:40;;;;;;;9.18;2.05;;;;;;;;;;4986761;28;20029;-69
2023/03/16 10:25:16;;;;;;;12.60;2.83;;;;;;;;;;4989404;28;20737;-69
2023/03/16 10:27:44;;;;;;;9.23;2.08;;;;;;;;;;4991837;28;20537;-70
2023/03/16 10:30:29;;;;;;;10.90;2.28;;;;;;;;;;4980024;28;20492;-69
2023/03/16 10:33:02;;;;;;;9.05;2.15;;;;;;;;;;4988128;28;20826;-69
2023/03/16 10:35:47;;;;;;;10.68;2.30;;;;;;;;;;4992479;28;20693;-70
2023/03/16 10:38:37;;;;;;;9.75;2.10;;;;;;;;;;4992705;28;20041;-69
2023/03/16 10:41:26;;;;;;;8.75;2.30;;;;;;;;;;4992551;28;20373;-69
2023/03/16 10:44:00;;;;;;;9.95;2.30;;;;;;;;;;4961001;28;20041;-70
2023/03/16 10:46:32;;;;;;;7.32;2.00;;;;;;;;;;4992490;28;20045;-69
2023/03/16 10:49:00;;;;;;;11.70;2.28;;;;;;;;;;4978338;28;20443;-70
2023/03/16 10:51:33;;;;;;;7.85;1.95;;;;;;;;;;4974553;28;20103;-70
2023/03/16 10:54:24;;;;;;;9.25;2.25;;;;;;;;;;4977380;28;20420;-70
2023/03/16 10:56:51;;;;;;;8.55;1.92;;;;;;;;;;4992811;28;20135;-70
2023/03/16 10:59:37;;;;;;;9.52;1.98;;;;;;;;;;5017403;28;20056;-70
2023/03/16 11:02:19;;;;;;;10.73;2.38;;;;;;;;;;5015312;28;20594;-70
2023/03/16 11:04:57;;;;;;;7.72;2.15;;;;;;;;;;5013931;28;20045;-72
2023/03/16 11:07:25;;;;;;;7.80;1.92;;;;;;;;;;5016116;28;20040;-69
2023/03/16 11:09:55;;;;;;;10.38;2.35;;;;;;;;;;5001289;28;20197;-70
2023/03/16 11:12:24;;;;;;;10.38;1.95;;;;;;;;;;5006895;28;20451;-70
2023/03/16 11:14:52;;;;;;;9.55;2.22;;;;;;;;;;5009475;28;20064;-70
2023/03/16 11:17:34;;;;;;;10.38;2.05;;;;;;;;;;5015500;28;20113;-69
2023/03/16 11:20:13;;;;;;;8.00;1.92;;;;;;;;;;4999335;28;20033;-70
2023/03/16 11:22:44;;;;;;;14.88;2.22;;;;;;;;;;4968866;28;20045;-70
2023/03/16 11:25:34;;;;;;;11.30;2.22;;;;;;;;;;5013097;28;20137;-69
2023/03/16 11:28:15;;;;;;;10.95;2.03;;;;;;;;;;5013427;28;20033;-70
2023/03/16 11:31:01;;;;;;;9.32;1.95;;;;;;;;;;5012259;28;20057;-71
2023/03/16 11:33:30;;;;;;;13.07;2.45;;;;;;;;;;5022150;28;20098;-70
2023/03/16 11:36:28;;;;;;;11.48;2.47;;;;;;;;;;5015859;28;20085;-72
2023/03/16 11:39:22;;;;;;;8.85;2.00;;;;;;;;;;4956046;28;20047;-71
2023/03/16 11:41:58;;;;;;;9.50;2.58;;;;;;;;;;4915906;28;20047;-72
2023/03/16 11:44:40;;;;;;;9.55;2.58;;;;;;;;;;4917880;28;20624;-71
2023/03/16 11:47:27;;;;;;;9.57;3.00;;;;;;;;;;4917288;28;20530;-71
2023/03/16 11:50:13;;;;;;;10.10;2.72;;;;;;;;;;4901837;29;20464;-71
2023/03/16 11:53:07;;;;;;;13.30;2.95;;;;;;;;;;4899766;29;20043;-71
2023/03/16 11:55:45;;;;;;;9.35;2.88;;;;;;;;;;4901674;29;20052;-71
2023/03/16 11:58:31;;;;;;;9.80;2.92;;;;;;;;;;4905387;28;20046;-71
2023/03/16 12:01:18;;;;;;;80.93;13.77;;;;;;;;;;4897662;28;20044;-71
2023/03/16 12:04:02;;;;;;;23.00;4.15;;;;;;;;;;4897385;28;20077;-71
2023/03/16 12:06:49;;;;;;;15.25;3.05;;;;;;;;;;4903933;29;20050;-70
2023/03/16 12:09:36;;;;;;;9.98;2.35;;;;;;;;;;4862019;29;20084;-69
2023/03/16 12:12:09;;;;;;;24.48;4.78;;;;;;;;;;4860881;29;20044;-70
2023/03/16 12:14:55;;;;;;;12.20;2.30;;;;;;;;;;4866893;29;20066;-70
2023/03/16 12:17:26;;;;;;;12.10;2.70;;;;;;;;;;4896774;29;20827;-72
2023/03/16 12:20:03;;;;;;;9.43;2.40;;;;;;;;;;4943708;28;20504;-72
2023/03/16 12:22:40;;;;;;;10.48;2.70;;;;;;;;;;4973529;28;20061;-66
2023/03/16 12:25:14;;;;;;;14.70;3.03;;;;;;;;;;4972528;28;20349;-66
2023/03/16 12:27:43;;;;;;;14.48;3.17;;;;;;;;;;4969774;28;20038;-67
2023/03/16 12:30:34;;;;;;;14.63;3.50;;;;;;;;;;4960609;28;20486;-67
2023/03/16 12:33:23;;;;;;;7.88;2.20;;;;;;;;;;4967961;28;20145;-69
2023/03/16 12:36:05;;;;;;;10.25;2.22;;;;;;;;;;4936054;28;20050;-69
2023/03/16 12:38:46;;;;;;;9.63;2.30;;;;;;;;;;4939668;28;20508;-69
2023/03/16 12:41:32;;;;;;;8.77;2.20;;;;;;;;;;4955227;28;20042;-70
2023/03/16 12:44:07;;;;;;;9.80;2.45;;;;;;;;;;4952275;28;20045;-70
2023/03/16 12:46:34;;;;;;;;;;;;;;;;;;4955644;28;20598;-70
2023/03/16 12:49:06;;;;;;;11.55;2.83;;;;;;;;;;4952829;28;20371;-70
2023/03/16 12:51:33;;;;;;;9.20;2.30;;;;;;;;;;4955458;28;20035;-71
2023/03/16 12:54:01;;;;;;;10.93;2.33;;;;;;;;;;4956122;28;20085;-69
2023/03/16 12:56:36;;;;;;;9.60;2.10;;;;;;;;;;4952607;28;20026;-69
2023/03/16 12:59:06;;;;;;;7.72;2.10;;;;;;;;;;4911375;28;20058;-68
2023/03/16 13:01:44;;;;;;;13.90;3.67;;;;;;;;;;4903474;28;20455;-68
2023/03/16 13:04:15;;;;;;;8.63;2.47;;;;;;;;;;4905562;28;20476;-68
2023/03/16 13:06:48;;;;;;;9.00;2.38;;;;;;;;;;4915516;28;20959;-67
2023/03/16 13:09:23;;;;;;;8.48;2.25;;;;;;;;;;4920724;28;20502;-69
2023/03/16 13:11:52;;;;;;;9.52;2.10;;;;;;;;;;4918716;28;20470;-70
2023/03/16 13:14:41;;;;;;;14.70;2.30;;;;;;;;;;4989915;28;20041;-71
2023/03/16 13:17:19;;;;;;;13.13;2.40;;;;;;;;;;4973516;28;20042;-69
2023/03/16 13:20:02;;;;;;;9.80;2.35;;;;;;;;;;4967864;28;20289;-70
2023/03/16 13:22:31;;;;;;;8.68;1.90;;;;;;;;;;4971619;28;20318;-70
2023/03/16 13:25:16;;;;;;;9.15;1.67;;;;;;;;;;4959048;28;20054;-68
2023/03/16 13:27:48;;;;;;;6.70;1.52;;;;;;;;;;4971470;28;20427;-69
2023/03/16 13:30:17;;;;;;;8.25;1.70;;;;;;;;;;4958515;28;20598;-70
2023/03/16 13:32:43;;;;;;;6.75;1.60;;;;;;;;;;4971186;28;20551;-70
2023/03/16 13:35:16;;;;;;;12.25;2.17;;;;;;;;;;4973221;28;20124;-70
2023/03/16 13:37:44;;;;;;;9.73;1.80;;;;;;;;;;4957003;28;20046;-69
2023/03/16 13:40:32;;;;;;;9.38;2.05;;;;;;;;;;4968103;28;20078;-70
2023/03/16 13:43:02;;;;;;;8.50;1.60;;;;;;;;;;4968356;28;20048;-68
2023/03/16 13:45:33;;;;;;;8.18;1.70;;;;;;;;;;4939814;28;20388;-69
2023/03/16 13:48:02;;;;;;;7.88;1.58;;;;;;;;;;4957134;28;20625;-70
2023/03/16 13:50:33;;;;;;;8.48;1.55;;;;;;;;;;5006786;28;20485;-69
2023/03/16 13:53:17;;;;;;;8.13;1.13;;;;;;;;;;4999398;28;20117;-68
2023/03/16 13:55:47;;;;;;;11.23;2.95;;;;;;;;;;4989711;28;20045;-68
2023/03/16 13:58:32;;;;;;;10.18;2.42;;;;;;;;;;5010451;28;20114;-68
2023/03/16 14:01:02;;;;;;;7.60;1.50;;;;;;;;;;5009015;28;20459;-70
2023/03/16 14:03:41;;;;;;;8.23;1.58;;;;;;;;;;5009323;28;20447;-69
2023/03/16 14:06:09;;;;;;;12.77;5.18;;;;;;;;;;5009505;28;20285;-70
2023/03/16 14:08:37;;;;;;;8.48;1.73;;;;;;;;;;5014039;28;20384;-68
2023/03/16 14:11:05;;;;;;;10.65;2.80;;;;;;;;;;5015041;28;20908;-70
2023/03/16 14:13:37;;;;;;;11.27;2.88;;;;;;;;;;5031460;28;20032;-68
2023/03/16 14:16:10;;;;;;;9.38;2.13;;;;;;;;;;4998717;28;20041;-70
2023/03/16 14:18:59;;;;;;;7.50;1.80;;;;;;;;;;5029133;28;20032;-68
2023/03/16 14:21:26;;;;;;;7.15;1.25;;;;;;;;;;5030027;28;20037;-69
2023/03/16 14:23:55;;;;;;;8.13;1.50;;;;;;;;;;5010045;28;20047;-70
2023/03/16 14:26:22;;;;;;;6.45;1.30;;;;;;;;;;5003273;28;20033;-70
2023/03/16 14:29:02;;;;;;;6.55;1.40;;;;;;;;;;5030530;28;20897;-70
2023/03/16 14:31:33;;;;;;;6.18;1.35;;;;;;;;;;5033071;28;20050;-70
2023/03/16 14:34:03;;;;;;;8.05;1.50;;;;;;;;;;5018196;28;20435;-70
2023/03/16 14:36:37;;;;;;;6.68;1.48;;;;;;;;;;5033279;28;20509;-70
2023/03/16 14:39:12;;;;;;;10.15;2.10;;;;;;;;;;5033903;28;20540;-71
2023/03/16 14:41:41;;;;;;;7.97;1.58;;;;;;;;;;5013326;28;20765;-70
2023/03/16 14:44:30;;;;;;;5.70;1.50;;;;;;;;;;5038092;28;20430;-69
2023/03/16 14:46:59;;;;;;;7.35;1.58;;;;;;;;;;5020563;28;24435;-69
2023/03/16 14:49:32;;;;;;;6.88;1.40;;;;;;;;;;5020980;28;20298;-71
2023/03/16 14:52:00;;;;;;;6.28;2.03;;;;;;;;;;5033740;28;20033;-71
2023/03/16 14:54:28;;;;;;;8.32;1.77;;;;;;;;;;5032866;28;20324;-70
2023/03/16 14:57:01;;;;;;;14.60;2.00;;;;;;;;;;4996985;28;20581;-70
2023/03/16 14:59:28;;;;;;;9.75;2.38;;;;;;;;;;5005452;28;20047;-69
2023/03/16 15:01:54;;;;;;;8.70;1.60;;;;;;;;;;5017387;28;20032;-69
2023/03/16 15:04:33;;;;;;;11.93;2.10;;;;;;;;;;5017671;28;20525;-70
2023/03/16 15:07:07;;;;;;;17.42;2.30;;;;;;;;;;5010405;28;20028;-68
2023/03/16 15:09:37;;;;;;;9.80;1.70;;;;;;;;;;5034301;28;20513;-69
2023/03/16 15:12:06;;;;;;;15.18;2.17;;;;;;;;;;5031430;28;20257;-69
2023/03/16 15:17:21;;;;;;;17.25;2.42;;;;;;;;;;5034618;28;20040;-71
2023/03/16 15:19:52;;;;;;;8.18;1.67;;;;;;;;;;5029214;28;20040;-70
2023/03/16 15:22:30;;;;;;;7.65;1.58;;;;;;;;;;5016330;28;20032;-70
2023/03/16 15:24:57;;;;;;;7.90;1.75;;;;;;;;;;5031611;28;21760;-70
2023/03/16 15:27:27;;;;;;;8.80;1.70;;;;;;;;;;5034654;28;20035;-69
2023/03/16 15:29:56;;;;;;;6.63;1.88;;;;;;;;;;5020298;28;20039;-70
2023/03/16 15:32:33;;;;;;;8.05;1.95;;;;;;;;;;5033342;28;20029;-70
2023/03/16 15:35:00;;;;;;;7.97;1.90;;;;;;;;;;5033928;28;20469;-69
2023/03/16 15:37:31;;;;;;;9.02;1.80;;;;;;;;;;5035377;28;20032;-69
2023/03/16 15:40:24;;;;;;;8.05;2.10;;;;;;;;;;5034795;28;20040;-71
2023/03/16 15:42:58;;;;;;;9.80;2.30;;;;;;;;;;5029927;28;20335;-69
2023/03/16 15:45:25;;;;;;;14.48;2.47;;;;;;;;;;5015468;28;20116;-69
2023/03/16 15:47:54;;;;;;;12.20;2.20;;;;;;;;;;5034599;28;20567;-69
2023/03/16 15:50:23;;;;;;;11.27;2.30;;;;;;;;;;5035235;28;20143;-71
2023/03/16 15:52:59;;;;;;;11.55;2.22;;;;;;;;;;5011346;28;20029;-70
2023/03/16 15:55:47;;;;;;;9.90;2.40;;;;;;;;;;5003962;28;20041;-70
2023/03/16 15:58:19;;;;;;;10.95;2.40;;;;;;;;;;5019625;28;20060;-71
2023/03/16 16:00:48;;;;;;;12.57;2.70;;;;;;;;;;5019490;28;20764;-68
2023/03/16 16:03:15;;;;;;;9.07;2.83;;;;;;;;;;4989181;28;20885;-69
2023/03/16 16:05:44;;;;;;;10.00;2.47;;;;;;;;;;5014649;28;20037;-69
2023/03/16 16:08:12;;;;;;;10.48;2.53;;;;;;;;;;5018086;28;20033;-68
2023/03/16 16:10:39;;;;;;;11.27;2.20;;;;;;;;;;5011017;28;20036;-69
2023/03/16 16:13:06;;;;;;;11.85;3.28;;;;;;;;;;5003487;28;20016;-69
2023/03/16 16:15:36;;;;;;;9.80;2.70;;;;;;;;;;5004208;28;20057;-70
2023/03/16 16:18:18;;;;;;;8.70;2.72;;;;;;;;;;5015161;28;20060;-68
2023/03/16 16:20:47;;;;;;;11.05;2.83;;;;;;;;;;5013862;28;20080;-69
2023/03/16 16:23:16;;;;;;;9.48;2.67;;;;;;;;;;5016675;28;20037;-68
2023/03/16 16:25:45;;;;;;;9.35;2.63;;;;;;;;;;5000584;28;20033;-69
2023/03/16 16:28:18;;;;;;;9.15;2.20;;;;;;;;;;5014951;28;20049;-68
2023/03/16 16:30:45;;;;;;;7.88;2.30;;;;;;;;;;4995861;28;20037;-69
2023/03/16 16:33:34;;;;;;;11.90;4.47;;;;;;;;;;4995012;28;20231;-69
2023/03/16 16:36:07;;;;;;;11.75;3.53;;;;;;;;;;4992199;28;20111;-69
2023/03/16 16:38:37;;;;;;;10.98;2.92;;;;;;;;;;5001516;28;20487;-69
2023/03/16 17:09:37;;;;;;;9.20;2.65;;;;;;;;;;4952584;28;20461;-70
2023/03/16 17:12:22;;;;;;;9.10;2.10;;;;;;;;;;4950105;28;20026;-68
2023/03/16 17:15:06;;;;;;;10.50;2.55;;;;;;;;;;4960645;28;20157;-67
2023/03/16 17:17:36;;;;;;;9.02;2.47;;;;;;;;;;4960082;28;21349;-66
2023/03/16 17:20:04;;;;;;;11.13;3.00;;;;;;;;;;4959999;28;20029;-67
2023/03/16 17:22:30;;;;;;;10.48;2.65;;;;;;;;;;4958382;28;20034;-67
2023/03/16 17:24:57;;;;;;;10.88;2.70;;;;;;;;;;4940103;28;20508;-67
2023/03/16 17:27:27;;;;;;;13.13;2.80;;;;;;;;;;4961653;28;20110;-67
2023/03/16 17:29:54;;;;;;;10.82;2.85;;;;;;;;;;4960053;28;20099;-67
2023/03/16 17:32:21;;;;;;;10.15;2.60;;;;;;;;;;4961215;28;20057;-67
2023/03/16 17:34:48;;;;;;;13.07;3.10;;;;;;;;;;4958891;28;20455;-67
2023/03/16 17:37:16;;;;;;;11.95;2.80;;;;;;;;;;4960912;28;20117;-68
2023/03/16 17:39:43;;;;;;;10.57;2.80;;;;;;;;;;4959201;28;20133;-67
2023/03/16 17:42:13;;;;;;;11.15;2.90;;;;;;;;;;4956836;28;20053;-67
2023/03/16 17:44:40;;;;;;;15.20;3.42;;;;;;;;;;4958455;28;20033;-66
2023/03/16 17:47:14;;;;;;;10.80;2.70;;;;;;;;;;4956965;28;20544;-66
2023/03/16 17:49:40;;;;;;;12.27;3.10;;;;;;;;;;4958937;28;20588;-67
2023/03/16 17:52:14;;;;;;;13.05;3.63;;;;;;;;;;4955345;28;20033;-67
2023/03/16 17:54:40;;;;;;;11.43;3.10;;;;;;;;;;4961680;28;20676;-67
2023/03/16 17:57:12;;;;;;;13.73;3.85;;;;;;;;;;4957729;28;20339;-69
2023/03/16 17:59:39;;;;;;;13.23;3.85;;;;;;;;;;4954721;28;20066;-68
2023/03/16 18:02:18;;;;;;;12.73;3.88;;;;;;;;;;4956079;28;20087;-67
2023/03/16 18:04:44;;;;;;;15.38;3.55;;;;;;;;;;4952126;28;20537;-66
2023/03/16 18:12:44;;;;;;;11.77;3.83;;;;;;;;;;4941713;23;20054;-67
2023/03/16 18:18:00;;;;;;;12.50;4.15;;;;;;;;;;4948195;28;20254;-66
2023/03/16 18:20:35;;;;;;;10.18;4.10;;;;;;;;;;4948155;28;20288;-67
2023/03/16 18:23:12;;;;;;;11.95;4.13;;;;;;;;;;4951027;28;20469;-67
2023/03/16 18:25:40;;;;;;;13.45;3.85;;;;;;;;;;4959529;28;20609;-67
2023/03/16 18:28:09;;;;;;;14.65;5.07;;;;;;;;;;4949581;28;20041;-67
2023/03/16 18:30:38;;;;;;;15.32;6.30;;;;;;;;;;4947764;28;20073;-67
2023/03/16 18:33:20;;;;;;;12.02;5.10;;;;;;;;;;4947549;28;20026;-67
2023/03/16 18:35:48;;;;;;;12.98;5.97;;;;;;;;;;4948224;28;20909;-67
2023/03/16 18:38:17;;;;;;;15.15;5.55;;;;;;;;;;4950405;28;20068;-70
2023/03/16 18:40:46;;;;;;;14.00;4.90;;;;;;;;;;4945057;28;20487;-67
2023/03/16 18:43:15;;;;;;;14.93;4.43;;;;;;;;;;4946393;28;20473;-67
2023/03/16 18:45:44;;;;;;;13.27;4.13;;;;;;;;;;4935453;28;20107;-67
2023/03/16 18:48:19;;;;;;;21.58;7.55;;;;;;;;;;4935781;28;20585;-67
2023/03/16 18:50:47;;;;;;;13.93;4.40;;;;;;;;;;4937946;28;20026;-67
2023/03/16 18:53:16;;;;;;;13.73;4.43;;;;;;;;;;4941328;28;20509;-67
2023/03/16 18:55:43;;;;;;;13.63;3.90;;;;;;;;;;4934367;28;20042;-67
2023/03/16 18:58:15;;;;;;;13.05;4.00;;;;;;;;;;4936468;28;20035;-68
2023/03/16 19:00:48;;;;;;;17.90;4.00;;;;;;;;;;4930136;28;20023;-68